sensor_id;sensor_type;location;lat;lon;timestamp;P1;durP1;ratioP1;P2;durP2;ratioP2
33160;SDS011;19522;45.656;11.302;2023-01-01T00:00:43;76.53;;;52.38;;
33160;SDS011;19522;45.656;11.302;2023-01-01T00:03:08;77.15;;;52.20;;
33160;SDS011;19522;45.656;11.302;2023-01-01T00:05:36;76.78;;;51.55;;
33160;SDS011;19522;45.656;11.302;2023-01-01T00:08:02;74.20;;;50.30;;
33160;SDS011;19522;45.656;11.302;2023-01-01T00:10:28;78.65;;;54.28;;
33160;SDS011;19522;45.656;11.302;2023-01-01T00:12:57;75.00;;;51.83;;
33160;SDS011;19522;45.656;11.302;2023-01-01T00:15:24;76.30;;;49.72;;
33160;SDS011;19522;45.656;11.302;2023-01-01T00:17:51;73.25;;;50.80;;
33160;SDS011;19522;45.656;11.302;2023-01-01T00:20:17;68.25;;;47.72;;
33160;SDS011;19522;45.656;11.302;2023-01-01T00:22:43;67.45;;;47.42;;
33160;SDS011;19522;45.656;11.302;2023-01-01T00:25:09;63.50;;;46.20;;
33160;SDS011;19522;45.656;11.302;2023-01-01T00:27:37;65.68;;;45.25;;
33160;SDS011;19522;45.656;11.302;2023-01-01T00:30:03;77.32;;;50.47;;
33160;SDS011;19522;45.656;11.302;2023-01-01T00:32:29;73.50;;;49.35;;
33160;SDS011;19522;45.656;11.302;2023-01-01T00:34:55;68.95;;;46.72;;
33160;SDS011;19522;45.656;11.302;2023-01-01T00:37:20;69.68;;;46.95;;
33160;SDS011;19522;45.656;11.302;2023-01-01T00:39:46;68.47;;;45.22;;
33160;SDS011;19522;45.656;11.302;2023-01-01T00:42:11;62.13;;;42.28;;
33160;SDS011;19522;45.656;11.302;2023-01-01T00:44:37;61.60;;;40.63;;
33160;SDS011;19522;45.656;11.302;2023-01-01T00:47:02;53.53;;;37.47;;
33160;SDS011;19522;45.656;11.302;2023-01-01T00:49:28;52.08;;;37.03;;
33160;SDS011;19522;45.656;11.302;2023-01-01T00:51:53;54.00;;;38.55;;
33160;SDS011;19522;45.656;11.302;2023-01-01T00:54:19;51.92;;;36.00;;
33160;SDS011;19522;45.656;11.302;2023-01-01T00:56:44;46.25;;;33.33;;
33160;SDS011;19522;45.656;11.302;2023-01-01T00:59:10;44.30;;;29.02;;
33160;SDS011;19522;45.656;11.302;2023-01-01T01:01:35;38.47;;;28.25;;
33160;SDS011;19522;45.656;11.302;2023-01-01T01:04:02;39.00;;;26.52;;
33160;SDS011;19522;45.656;11.302;2023-01-01T01:06:28;35.50;;;26.48;;
33160;SDS011;19522;45.656;11.302;2023-01-01T01:08:53;36.05;;;25.40;;
33160;SDS011;19522;45.656;11.302;2023-01-01T01:11:20;36.80;;;26.05;;
33160;SDS011;19522;45.656;11.302;2023-01-01T01:13:49;53.60;;;36.45;;
33160;SDS011;19522;45.656;11.302;2023-01-01T01:16:17;46.92;;;34.10;;
33160;SDS011;19522;45.656;11.302;2023-01-01T01:18:43;44.15;;;29.33;;
33160;SDS011;19522;45.656;11.302;2023-01-01T01:21:09;45.58;;;28.42;;
33160;SDS011;19522;45.656;11.302;2023-01-01T01:23:38;39.00;;;27.65;;
33160;SDS011;19522;45.656;11.302;2023-01-01T01:26:08;42.83;;;27.67;;
33160;SDS011;19522;45.656;11.302;2023-01-01T01:28:41;43.22;;;27.92;;
33160;SDS011;19522;45.656;11.302;2023-01-01T01:31:08;43.35;;;29.27;;
33160;SDS011;19522;45.656;11.302;2023-01-01T01:33:33;41.17;;;28.98;;
33160;SDS011;19522;45.656;11.302;2023-01-01T01:36:00;33.10;;;23.58;;
33160;SDS011;19522;45.656;11.302;2023-01-01T01:38:26;31.90;;;22.15;;
33160;SDS011;19522;45.656;11.302;2023-01-01T01:40:52;26.25;;;17.85;;
33160;SDS011;19522;45.656;11.302;2023-01-01T01:43:24;23.38;;;16.65;;
33160;SDS011;19522;45.656;11.302;2023-01-01T01:46:19;26.45;;;17.80;;
33160;SDS011;19522;45.656;11.302;2023-01-01T01:48:48;27.80;;;18.05;;
33160;SDS011;19522;45.656;11.302;2023-01-01T01:51:22;23.83;;;17.02;;
33160;SDS011;19522;45.656;11.302;2023-01-01T01:53:53;29.92;;;17.40;;
33160;SDS011;19522;45.656;11.302;2023-01-01T01:57:05;24.98;;;16.60;;
33160;SDS011;19522;45.656;11.302;2023-01-01T01:59:19;24.63;;;15.88;;
33160;SDS011;19522;45.656;11.302;2023-01-01T02:01:48;24.77;;;16.88;;
33160;SDS011;19522;45.656;11.302;2023-01-01T02:04:14;25.08;;;15.85;;
33160;SDS011;19522;45.656;11.302;2023-01-01T02:06:41;22.15;;;15.23;;
33160;SDS011;19522;45.656;11.302;2023-01-01T02:09:07;23.08;;;15.80;;
33160;SDS011;19522;45.656;11.302;2023-01-01T02:11:33;24.60;;;15.07;;
33160;SDS011;19522;45.656;11.302;2023-01-01T02:13:59;23.00;;;14.98;;
33160;SDS011;19522;45.656;11.302;2023-01-01T02:16:36;19.10;;;12.82;;
33160;SDS011;19522;45.656;11.302;2023-01-01T02:22:14;23.63;;;14.00;;
33160;SDS011;19522;45.656;11.302;2023-01-01T02:24:47;18.40;;;12.65;;
33160;SDS011;19522;45.656;11.302;2023-01-01T02:27:29;19.08;;;13.25;;
33160;SDS011;19522;45.656;11.302;2023-01-01T02:30:08;20.17;;;12.82;;
33160;SDS011;19522;45.656;11.302;2023-01-01T02:32:53;20.98;;;13.98;;
33160;SDS011;19522;45.656;11.302;2023-01-01T02:35:30;20.27;;;13.50;;
33160;SDS011;19522;45.656;11.302;2023-01-01T02:40:41;22.05;;;12.85;;
33160;SDS011;19522;45.656;11.302;2023-01-01T02:43:11;21.63;;;13.30;;
33160;SDS011;19522;45.656;11.302;2023-01-01T02:45:36;20.33;;;13.93;;
33160;SDS011;19522;45.656;11.302;2023-01-01T02:48:06;16.73;;;12.35;;
33160;SDS011;19522;45.656;11.302;2023-01-01T02:50:52;22.08;;;13.77;;
33160;SDS011;19522;45.656;11.302;2023-01-01T02:53:32;19.98;;;14.45;;
33160;SDS011;19522;45.656;11.302;2023-01-01T02:56:07;20.08;;;13.70;;
33160;SDS011;19522;45.656;11.302;2023-01-01T03:04:38;19.17;;;13.27;;
33160;SDS011;19522;45.656;11.302;2023-01-01T03:07:11;17.95;;;12.13;;
33160;SDS011;19522;45.656;11.302;2023-01-01T03:09:48;19.83;;;13.82;;
33160;SDS011;19522;45.656;11.302;2023-01-01T03:12:30;20.85;;;13.25;;
33160;SDS011;19522;45.656;11.302;2023-01-01T03:18:02;19.42;;;12.32;;
33160;SDS011;19522;45.656;11.302;2023-01-01T03:20:32;21.02;;;13.45;;
33160;SDS011;19522;45.656;11.302;2023-01-01T03:23:06;20.67;;;13.25;;
33160;SDS011;19522;45.656;11.302;2023-01-01T03:25:41;21.88;;;13.80;;
33160;SDS011;19522;45.656;11.302;2023-01-01T03:28:16;21.00;;;13.30;;
33160;SDS011;19522;45.656;11.302;2023-01-01T03:30:46;22.30;;;13.18;;
33160;SDS011;19522;45.656;11.302;2023-01-01T03:33:17;19.05;;;12.13;;
33160;SDS011;19522;45.656;11.302;2023-01-01T03:36:08;24.17;;;13.77;;
33160;SDS011;19522;45.656;11.302;2023-01-01T03:38:38;18.88;;;13.00;;
33160;SDS011;19522;45.656;11.302;2023-01-01T03:41:28;19.27;;;11.88;;
33160;SDS011;19522;45.656;11.302;2023-01-01T03:44:08;18.00;;;12.57;;
33160;SDS011;19522;45.656;11.302;2023-01-01T03:46:39;18.02;;;11.60;;
33160;SDS011;19522;45.656;11.302;2023-01-01T03:49:07;17.73;;;11.80;;
33160;SDS011;19522;45.656;11.302;2023-01-01T04:04:46;18.05;;;11.15;;
33160;SDS011;19522;45.656;11.302;2023-01-01T04:07:12;18.35;;;12.18;;
33160;SDS011;19522;45.656;11.302;2023-01-01T04:09:39;17.27;;;11.80;;
33160;SDS011;19522;45.656;11.302;2023-01-01T04:12:11;17.63;;;10.65;;
33160;SDS011;19522;45.656;11.302;2023-01-01T04:14:38;15.15;;;11.10;;
33160;SDS011;19522;45.656;11.302;2023-01-01T04:17:06;17.48;;;10.45;;
33160;SDS011;19522;45.656;11.302;2023-01-01T04:19:33;16.08;;;10.63;;
33160;SDS011;19522;45.656;11.302;2023-01-01T04:21:59;15.95;;;10.52;;
33160;SDS011;19522;45.656;11.302;2023-01-01T04:24:25;20.98;;;11.05;;
33160;SDS011;19522;45.656;11.302;2023-01-01T04:26:51;18.00;;;10.77;;
33160;SDS011;19522;45.656;11.302;2023-01-01T04:29:17;14.82;;;10.35;;
33160;SDS011;19522;45.656;11.302;2023-01-01T04:31:43;16.58;;;10.18;;
33160;SDS011;19522;45.656;11.302;2023-01-01T04:34:09;14.07;;;9.80;;
33160;SDS011;19522;45.656;11.302;2023-01-01T04:36:34;16.45;;;10.68;;
33160;SDS011;19522;45.656;11.302;2023-01-01T04:39:00;16.45;;;10.88;;
33160;SDS011;19522;45.656;11.302;2023-01-01T04:41:26;16.65;;;11.00;;
33160;SDS011;19522;45.656;11.302;2023-01-01T04:43:51;16.05;;;10.48;;
33160;SDS011;19522;45.656;11.302;2023-01-01T04:46:18;14.98;;;9.90;;
33160;SDS011;19522;45.656;11.302;2023-01-01T04:48:45;15.15;;;10.27;;
33160;SDS011;19522;45.656;11.302;2023-01-01T04:51:11;15.80;;;9.75;;
33160;SDS011;19522;45.656;11.302;2023-01-01T04:53:38;14.77;;;10.10;;
33160;SDS011;19522;45.656;11.302;2023-01-01T04:58:32;16.73;;;10.23;;
33160;SDS011;19522;45.656;11.302;2023-01-01T05:00:58;16.00;;;10.60;;
33160;SDS011;19522;45.656;11.302;2023-01-01T05:03:24;13.93;;;9.73;;
33160;SDS011;19522;45.656;11.302;2023-01-01T05:06:02;15.50;;;9.90;;
33160;SDS011;19522;45.656;11.302;2023-01-01T05:08:30;14.05;;;8.80;;
33160;SDS011;19522;45.656;11.302;2023-01-01T05:11:15;13.30;;;9.10;;
33160;SDS011;19522;45.656;11.302;2023-01-01T05:13:44;14.00;;;9.18;;
33160;SDS011;19522;45.656;11.302;2023-01-01T05:16:11;13.93;;;9.52;;
33160;SDS011;19522;45.656;11.302;2023-01-01T05:18:39;15.98;;;9.88;;
33160;SDS011;19522;45.656;11.302;2023-01-01T05:21:06;16.67;;;9.27;;
33160;SDS011;19522;45.656;11.302;2023-01-01T05:23:33;13.05;;;8.80;;
33160;SDS011;19522;45.656;11.302;2023-01-01T05:25:59;14.07;;;8.57;;
33160;SDS011;19522;45.656;11.302;2023-01-01T05:28:32;12.88;;;8.73;;
33160;SDS011;19522;45.656;11.302;2023-01-01T05:30:57;14.10;;;8.15;;
33160;SDS011;19522;45.656;11.302;2023-01-01T05:33:23;13.95;;;8.18;;
33160;SDS011;19522;45.656;11.302;2023-01-01T05:35:52;13.13;;;8.43;;
33160;SDS011;19522;45.656;11.302;2023-01-01T05:38:18;13.77;;;8.93;;
33160;SDS011;19522;45.656;11.302;2023-01-01T05:40:44;11.98;;;8.02;;
33160;SDS011;19522;45.656;11.302;2023-01-01T05:43:09;10.50;;;7.72;;
33160;SDS011;19522;45.656;11.302;2023-01-01T05:45:35;11.70;;;8.20;;
33160;SDS011;19522;45.656;11.302;2023-01-01T05:48:00;9.32;;;7.28;;
33160;SDS011;19522;45.656;11.302;2023-01-01T05:50:26;11.02;;;6.97;;
33160;SDS011;19522;45.656;11.302;2023-01-01T05:52:52;14.57;;;6.47;;
33160;SDS011;19522;45.656;11.302;2023-01-01T05:55:17;9.73;;;6.60;;
33160;SDS011;19522;45.656;11.302;2023-01-01T05:57:43;9.30;;;6.45;;
33160;SDS011;19522;45.656;11.302;2023-01-01T06:00:08;12.07;;;6.55;;
33160;SDS011;19522;45.656;11.302;2023-01-01T06:02:34;8.57;;;5.97;;
33160;SDS011;19522;45.656;11.302;2023-01-01T06:05:00;11.27;;;6.15;;
33160;SDS011;19522;45.656;11.302;2023-01-01T06:07:25;10.93;;;6.88;;
33160;SDS011;19522;45.656;11.302;2023-01-01T06:09:51;8.68;;;6.00;;
33160;SDS011;19522;45.656;11.302;2023-01-01T06:12:16;9.73;;;6.55;;
33160;SDS011;19522;45.656;11.302;2023-01-01T06:14:42;10.00;;;5.97;;
33160;SDS011;19522;45.656;11.302;2023-01-01T06:17:07;16.10;;;9.45;;
33160;SDS011;19522;45.656;11.302;2023-01-01T06:19:33;15.52;;;9.73;;
33160;SDS011;19522;45.656;11.302;2023-01-01T06:21:58;12.63;;;9.40;;
33160;SDS011;19522;45.656;11.302;2023-01-01T06:24:24;12.50;;;8.18;;
33160;SDS011;19522;45.656;11.302;2023-01-01T06:26:49;11.88;;;7.80;;
33160;SDS011;19522;45.656;11.302;2023-01-01T06:29:15;12.18;;;7.05;;
33160;SDS011;19522;45.656;11.302;2023-01-01T06:31:40;10.82;;;7.43;;
33160;SDS011;19522;45.656;11.302;2023-01-01T06:34:06;11.73;;;7.70;;
33160;SDS011;19522;45.656;11.302;2023-01-01T06:36:32;9.85;;;6.88;;
33160;SDS011;19522;45.656;11.302;2023-01-01T06:38:57;10.18;;;6.88;;
33160;SDS011;19522;45.656;11.302;2023-01-01T06:41:24;10.40;;;7.10;;
33160;SDS011;19522;45.656;11.302;2023-01-01T06:43:51;11.10;;;7.40;;
33160;SDS011;19522;45.656;11.302;2023-01-01T06:46:25;13.13;;;7.38;;
33160;SDS011;19522;45.656;11.302;2023-01-01T06:48:53;10.63;;;6.82;;
33160;SDS011;19522;45.656;11.302;2023-01-01T06:51:21;9.25;;;6.50;;
33160;SDS011;19522;45.656;11.302;2023-01-01T06:53:52;9.55;;;6.57;;
33160;SDS011;19522;45.656;11.302;2023-01-01T06:56:18;8.90;;;6.05;;
33160;SDS011;19522;45.656;11.302;2023-01-01T06:58:44;10.50;;;6.78;;
33160;SDS011;19522;45.656;11.302;2023-01-01T07:01:11;11.65;;;7.65;;
33160;SDS011;19522;45.656;11.302;2023-01-01T07:03:39;11.27;;;7.30;;
33160;SDS011;19522;45.656;11.302;2023-01-01T07:06:06;14.05;;;7.43;;
33160;SDS011;19522;45.656;11.302;2023-01-01T07:08:32;10.60;;;7.28;;
33160;SDS011;19522;45.656;11.302;2023-01-01T07:10:58;10.50;;;7.05;;
33160;SDS011;19522;45.656;11.302;2023-01-01T07:13:24;8.30;;;6.38;;
33160;SDS011;19522;45.656;11.302;2023-01-01T07:15:50;11.10;;;6.93;;
33160;SDS011;19522;45.656;11.302;2023-01-01T07:18:17;10.45;;;7.43;;
33160;SDS011;19522;45.656;11.302;2023-01-01T07:20:47;11.98;;;7.30;;
33160;SDS011;19522;45.656;11.302;2023-01-01T07:23:15;12.13;;;7.22;;
33160;SDS011;19522;45.656;11.302;2023-01-01T07:25:40;13.30;;;8.20;;
33160;SDS011;19522;45.656;11.302;2023-01-01T07:28:06;13.02;;;9.38;;
33160;SDS011;19522;45.656;11.302;2023-01-01T07:30:32;10.60;;;7.88;;
33160;SDS011;19522;45.656;11.302;2023-01-01T07:32:57;11.43;;;8.30;;
33160;SDS011;19522;45.656;11.302;2023-01-01T07:35:23;11.68;;;9.32;;
33160;SDS011;19522;45.656;11.302;2023-01-01T07:37:48;10.85;;;8.38;;
33160;SDS011;19522;45.656;11.302;2023-01-01T07:40:14;10.90;;;7.55;;
33160;SDS011;19522;45.656;11.302;2023-01-01T07:42:39;10.35;;;7.90;;
33160;SDS011;19522;45.656;11.302;2023-01-01T07:45:05;11.35;;;7.93;;
33160;SDS011;19522;45.656;11.302;2023-01-01T07:47:31;10.10;;;7.28;;
33160;SDS011;19522;45.656;11.302;2023-01-01T07:49:57;10.75;;;7.93;;
33160;SDS011;19522;45.656;11.302;2023-01-01T07:52:23;12.73;;;9.10;;
33160;SDS011;19522;45.656;11.302;2023-01-01T07:54:48;13.75;;;9.18;;
33160;SDS011;19522;45.656;11.302;2023-01-01T07:57:14;12.20;;;8.70;;
33160;SDS011;19522;45.656;11.302;2023-01-01T07:59:39;13.82;;;9.88;;
33160;SDS011;19522;45.656;11.302;2023-01-01T08:02:05;11.85;;;8.95;;
33160;SDS011;19522;45.656;11.302;2023-01-01T08:04:31;13.48;;;9.55;;
33160;SDS011;19522;45.656;11.302;2023-01-01T08:06:56;14.40;;;8.98;;
33160;SDS011;19522;45.656;11.302;2023-01-01T08:09:22;16.20;;;9.13;;
33160;SDS011;19522;45.656;11.302;2023-01-01T08:11:47;11.32;;;9.02;;
33160;SDS011;19522;45.656;11.302;2023-01-01T08:14:13;12.25;;;8.32;;
33160;SDS011;19522;45.656;11.302;2023-01-01T08:16:38;12.23;;;9.23;;
33160;SDS011;19522;45.656;11.302;2023-01-01T08:19:04;13.63;;;9.35;;
33160;SDS011;19522;45.656;11.302;2023-01-01T08:21:29;14.77;;;10.07;;
33160;SDS011;19522;45.656;11.302;2023-01-01T08:23:56;14.18;;;9.55;;
33160;SDS011;19522;45.656;11.302;2023-01-01T08:26:29;13.05;;;9.10;;
33160;SDS011;19522;45.656;11.302;2023-01-01T08:28:56;10.38;;;7.97;;
33160;SDS011;19522;45.656;11.302;2023-01-01T08:31:22;11.55;;;8.10;;
33160;SDS011;19522;45.656;11.302;2023-01-01T08:33:48;12.65;;;8.75;;
33160;SDS011;19522;45.656;11.302;2023-01-01T08:36:14;12.30;;;8.40;;
33160;SDS011;19522;45.656;11.302;2023-01-01T08:38:40;12.38;;;8.93;;
33160;SDS011;19522;45.656;11.302;2023-01-01T08:41:07;12.27;;;9.18;;
33160;SDS011;19522;45.656;11.302;2023-01-01T08:43:32;11.05;;;9.60;;
33160;SDS011;19522;45.656;11.302;2023-01-01T08:45:58;11.90;;;9.50;;
33160;SDS011;19522;45.656;11.302;2023-01-01T08:48:23;12.30;;;9.85;;
33160;SDS011;19522;45.656;11.302;2023-01-01T08:50:55;13.90;;;10.00;;
33160;SDS011;19522;45.656;11.302;2023-01-01T08:53:24;15.88;;;11.73;;
33160;SDS011;19522;45.656;11.302;2023-01-01T08:56:04;14.93;;;11.55;;
33160;SDS011;19522;45.656;11.302;2023-01-01T08:58:31;15.68;;;12.45;;
33160;SDS011;19522;45.656;11.302;2023-01-01T09:00:57;14.23;;;11.25;;
33160;SDS011;19522;45.656;11.302;2023-01-01T09:03:26;15.75;;;11.82;;
33160;SDS011;19522;45.656;11.302;2023-01-01T09:05:52;18.55;;;14.02;;
33160;SDS011;19522;45.656;11.302;2023-01-01T09:08:18;17.83;;;13.35;;
33160;SDS011;19522;45.656;11.302;2023-01-01T09:10:44;15.23;;;12.75;;
33160;SDS011;19522;45.656;11.302;2023-01-01T09:13:10;19.95;;;14.73;;
33160;SDS011;19522;45.656;11.302;2023-01-01T09:15:37;18.15;;;14.73;;
33160;SDS011;19522;45.656;11.302;2023-01-01T09:18:03;25.20;;;16.55;;
33160;SDS011;19522;45.656;11.302;2023-01-01T09:20:28;21.80;;;15.80;;
33160;SDS011;19522;45.656;11.302;2023-01-01T09:22:54;18.77;;;14.95;;
33160;SDS011;19522;45.656;11.302;2023-01-01T09:25:20;17.65;;;13.93;;
33160;SDS011;19522;45.656;11.302;2023-01-01T09:27:45;18.63;;;14.77;;
33160;SDS011;19522;45.656;11.302;2023-01-01T09:30:11;20.77;;;16.60;;
33160;SDS011;19522;45.656;11.302;2023-01-01T09:32:37;22.75;;;16.58;;
33160;SDS011;19522;45.656;11.302;2023-01-01T09:35:03;18.98;;;15.45;;
33160;SDS011;19522;45.656;11.302;2023-01-01T09:37:28;20.55;;;14.95;;
33160;SDS011;19522;45.656;11.302;2023-01-01T09:39:55;19.33;;;13.45;;
33160;SDS011;19522;45.656;11.302;2023-01-01T09:47:23;15.32;;;12.65;;
33160;SDS011;19522;45.656;11.302;2023-01-01T09:49:53;16.30;;;11.95;;
33160;SDS011;19522;45.656;11.302;2023-01-01T09:52:24;18.77;;;13.23;;
33160;SDS011;19522;45.656;11.302;2023-01-01T09:55:02;16.83;;;11.48;;
33160;SDS011;19522;45.656;11.302;2023-01-01T09:57:35;15.05;;;11.35;;
33160;SDS011;19522;45.656;11.302;2023-01-01T10:00:00;15.48;;;11.32;;
33160;SDS011;19522;45.656;11.302;2023-01-01T10:10:38;13.65;;;10.52;;
33160;SDS011;19522;45.656;11.302;2023-01-01T10:15:58;15.63;;;9.98;;
33160;SDS011;19522;45.656;11.302;2023-01-01T10:18:30;14.32;;;11.45;;
33160;SDS011;19522;45.656;11.302;2023-01-01T10:21:18;14.32;;;11.40;;
33160;SDS011;19522;45.656;11.302;2023-01-01T10:24:26;13.15;;;10.82;;
33160;SDS011;19522;45.656;11.302;2023-01-01T10:26:46;15.18;;;11.40;;
33160;SDS011;19522;45.656;11.302;2023-01-01T10:29:15;15.98;;;10.18;;
33160;SDS011;19522;45.656;11.302;2023-01-01T10:31:49;13.77;;;9.75;;
33160;SDS011;19522;45.656;11.302;2023-01-01T10:34:25;14.13;;;9.75;;
33160;SDS011;19522;45.656;11.302;2023-01-01T10:36:53;13.30;;;8.93;;
33160;SDS011;19522;45.656;11.302;2023-01-01T10:39:22;13.45;;;10.00;;
33160;SDS011;19522;45.656;11.302;2023-01-01T10:41:48;16.50;;;10.77;;
33160;SDS011;19522;45.656;11.302;2023-01-01T10:44:15;14.00;;;9.98;;
33160;SDS011;19522;45.656;11.302;2023-01-01T10:46:49;14.55;;;10.52;;
33160;SDS011;19522;45.656;11.302;2023-01-01T10:49:21;14.32;;;10.68;;
33160;SDS011;19522;45.656;11.302;2023-01-01T10:51:47;14.60;;;10.82;;
33160;SDS011;19522;45.656;11.302;2023-01-01T10:54:24;17.42;;;12.15;;
33160;SDS011;19522;45.656;11.302;2023-01-01T10:56:56;16.48;;;11.40;;
33160;SDS011;19522;45.656;11.302;2023-01-01T10:59:35;15.73;;;11.85;;
33160;SDS011;19522;45.656;11.302;2023-01-01T11:04:46;18.80;;;12.63;;
33160;SDS011;19522;45.656;11.302;2023-01-01T11:07:17;16.58;;;12.30;;
33160;SDS011;19522;45.656;11.302;2023-01-01T11:09:48;18.40;;;12.80;;
33160;SDS011;19522;45.656;11.302;2023-01-01T11:12:18;20.70;;;13.05;;
33160;SDS011;19522;45.656;11.302;2023-01-01T11:14:54;21.15;;;13.73;;
33160;SDS011;19522;45.656;11.302;2023-01-01T11:17:25;19.10;;;13.68;;
33160;SDS011;19522;45.656;11.302;2023-01-01T11:19:53;21.08;;;14.35;;
33160;SDS011;19522;45.656;11.302;2023-01-01T11:25:19;19.48;;;13.38;;
33160;SDS011;19522;45.656;11.302;2023-01-01T11:27:45;22.08;;;14.60;;
33160;SDS011;19522;45.656;11.302;2023-01-01T11:30:45;21.35;;;14.43;;
33160;SDS011;19522;45.656;11.302;2023-01-01T11:33:03;24.45;;;14.73;;
33160;SDS011;19522;45.656;11.302;2023-01-01T11:35:30;25.20;;;16.60;;
33160;SDS011;19522;45.656;11.302;2023-01-01T11:38:00;25.23;;;16.45;;
33160;SDS011;19522;45.656;11.302;2023-01-01T11:42:56;27.52;;;17.42;;
33160;SDS011;19522;45.656;11.302;2023-01-01T11:45:30;28.35;;;17.77;;
33160;SDS011;19522;45.656;11.302;2023-01-01T11:47:59;26.05;;;17.33;;
33160;SDS011;19522;45.656;11.302;2023-01-01T11:50:28;23.13;;;17.27;;
33160;SDS011;19522;45.656;11.302;2023-01-01T11:52:57;28.17;;;17.90;;
33160;SDS011;19522;45.656;11.302;2023-01-01T11:56:02;25.20;;;18.15;;
33160;SDS011;19522;45.656;11.302;2023-01-01T12:01:30;32.03;;;20.48;;
33160;SDS011;19522;45.656;11.302;2023-01-01T12:04:06;33.03;;;21.27;;
33160;SDS011;19522;45.656;11.302;2023-01-01T12:06:39;27.35;;;19.45;;
33160;SDS011;19522;45.656;11.302;2023-01-01T12:20:24;26.67;;;18.98;;
33160;SDS011;19522;45.656;11.302;2023-01-01T12:22:55;28.95;;;19.10;;
33160;SDS011;19522;45.656;11.302;2023-01-01T12:25:23;28.23;;;19.38;;
33160;SDS011;19522;45.656;11.302;2023-01-01T12:28:16;31.08;;;20.92;;
33160;SDS011;19522;45.656;11.302;2023-01-01T12:48:23;67.82;;;44.97;;
33160;SDS011;19522;45.656;11.302;2023-01-01T12:51:16;73.60;;;47.38;;
33160;SDS011;19522;45.656;11.302;2023-01-01T12:53:47;73.10;;;50.45;;
33160;SDS011;19522;45.656;11.302;2023-01-01T12:59:25;77.28;;;51.50;;
33160;SDS011;19522;45.656;11.302;2023-01-01T13:01:57;76.00;;;51.95;;
33160;SDS011;19522;45.656;11.302;2023-01-01T13:04:24;79.03;;;50.85;;
33160;SDS011;19522;45.656;11.302;2023-01-01T13:06:52;81.65;;;54.50;;
33160;SDS011;19522;45.656;11.302;2023-01-01T13:09:28;79.72;;;54.42;;
33160;SDS011;19522;45.656;11.302;2023-01-01T13:12:00;86.50;;;55.50;;
33160;SDS011;19522;45.656;11.302;2023-01-01T13:14:37;79.68;;;52.97;;
33160;SDS011;19522;45.656;11.302;2023-01-01T13:17:04;86.63;;;55.38;;
33160;SDS011;19522;45.656;11.302;2023-01-01T13:19:57;87.40;;;57.05;;
33160;SDS011;19522;45.656;11.302;2023-01-01T13:25:03;90.22;;;58.97;;
33160;SDS011;19522;45.656;11.302;2023-01-01T13:33:15;93.65;;;60.33;;
33160;SDS011;19522;45.656;11.302;2023-01-01T13:41:45;90.97;;;61.20;;
33160;SDS011;19522;45.656;11.302;2023-01-01T13:51:55;84.72;;;57.55;;
33160;SDS011;19522;45.656;11.302;2023-01-01T14:03:19;89.53;;;57.47;;
33160;SDS011;19522;45.656;11.302;2023-01-01T14:05:54;83.20;;;57.78;;
33160;SDS011;19522;45.656;11.302;2023-01-01T14:08:33;86.47;;;55.90;;
33160;SDS011;19522;45.656;11.302;2023-01-01T14:11:00;88.80;;;56.80;;
33160;SDS011;19522;45.656;11.302;2023-01-01T14:13:38;86.45;;;58.17;;
33160;SDS011;19522;45.656;11.302;2023-01-01T14:16:05;85.28;;;57.65;;
33160;SDS011;19522;45.656;11.302;2023-01-01T14:23:48;92.25;;;58.72;;
33160;SDS011;19522;45.656;11.302;2023-01-01T14:26:17;90.07;;;58.45;;
33160;SDS011;19522;45.656;11.302;2023-01-01T14:28:44;87.78;;;57.42;;
33160;SDS011;19522;45.656;11.302;2023-01-01T14:31:14;87.03;;;57.67;;
33160;SDS011;19522;45.656;11.302;2023-01-01T14:33:42;92.05;;;59.03;;
33160;SDS011;19522;45.656;11.302;2023-01-01T14:38:45;95.32;;;60.63;;
33160;SDS011;19522;45.656;11.302;2023-01-01T14:44:05;92.07;;;58.35;;
33160;SDS011;19522;45.656;11.302;2023-01-01T14:46:38;92.15;;;58.80;;
33160;SDS011;19522;45.656;11.302;2023-01-01T14:49:07;89.13;;;56.45;;
33160;SDS011;19522;45.656;11.302;2023-01-01T14:51:35;82.57;;;55.95;;
33160;SDS011;19522;45.656;11.302;2023-01-01T14:54:02;84.97;;;56.92;;
33160;SDS011;19522;45.656;11.302;2023-01-01T14:56:30;87.45;;;60.28;;
33160;SDS011;19522;45.656;11.302;2023-01-01T14:59:05;95.78;;;61.13;;
33160;SDS011;19522;45.656;11.302;2023-01-01T15:01:35;94.70;;;60.83;;
33160;SDS011;19522;45.656;11.302;2023-01-01T15:04:09;87.13;;;57.03;;
33160;SDS011;19522;45.656;11.302;2023-01-01T15:06:43;89.35;;;59.10;;
33160;SDS011;19522;45.656;11.302;2023-01-01T15:09:14;91.30;;;59.15;;
33160;SDS011;19522;45.656;11.302;2023-01-01T15:11:40;92.65;;;60.28;;
33160;SDS011;19522;45.656;11.302;2023-01-01T15:14:26;91.22;;;58.22;;
33160;SDS011;19522;45.656;11.302;2023-01-01T15:17:02;88.13;;;57.95;;
33160;SDS011;19522;45.656;11.302;2023-01-01T15:19:32;85.03;;;57.83;;
33160;SDS011;19522;45.656;11.302;2023-01-01T15:21:59;90.18;;;69.60;;
33160;SDS011;19522;45.656;11.302;2023-01-01T15:24:25;226.65;;;181.05;;
33160;SDS011;19522;45.656;11.302;2023-01-01T15:26:58;98.70;;;66.38;;
33160;SDS011;19522;45.656;11.302;2023-01-01T15:31:54;89.22;;;59.28;;
33160;SDS011;19522;45.656;11.302;2023-01-01T15:36:55;92.68;;;59.92;;
33160;SDS011;19522;45.656;11.302;2023-01-01T15:39:29;87.90;;;58.15;;
33160;SDS011;19522;45.656;11.302;2023-01-01T15:41:55;91.97;;;59.28;;
33160;SDS011;19522;45.656;11.302;2023-01-01T15:44:31;89.35;;;59.55;;
33160;SDS011;19522;45.656;11.302;2023-01-01T15:47:13;82.55;;;56.75;;
33160;SDS011;19522;45.656;11.302;2023-01-01T15:49:40;87.28;;;58.35;;
33160;SDS011;19522;45.656;11.302;2023-01-01T15:52:12;87.85;;;60.67;;
33160;SDS011;19522;45.656;11.302;2023-01-01T15:54:49;95.38;;;60.47;;
33160;SDS011;19522;45.656;11.302;2023-01-01T15:57:16;100.30;;;65.22;;
33160;SDS011;19522;45.656;11.302;2023-01-01T15:59:47;96.82;;;62.45;;
33160;SDS011;19522;45.656;11.302;2023-01-01T16:02:23;96.72;;;64.07;;
33160;SDS011;19522;45.656;11.302;2023-01-01T16:04:55;99.82;;;63.35;;
33160;SDS011;19522;45.656;11.302;2023-01-01T16:07:21;103.70;;;66.28;;
33160;SDS011;19522;45.656;11.302;2023-01-01T16:09:49;103.47;;;65.97;;
33160;SDS011;19522;45.656;11.302;2023-01-01T16:12:16;99.32;;;65.45;;
33160;SDS011;19522;45.656;11.302;2023-01-01T16:14:41;95.30;;;62.42;;
33160;SDS011;19522;45.656;11.302;2023-01-01T16:17:14;88.97;;;59.72;;
33160;SDS011;19522;45.656;11.302;2023-01-01T16:19:41;67.83;;;43.83;;
33160;SDS011;19522;45.656;11.302;2023-01-01T16:22:11;96.53;;;61.17;;
33160;SDS011;19522;45.656;11.302;2023-01-01T16:24:39;96.03;;;61.75;;
33160;SDS011;19522;45.656;11.302;2023-01-01T16:27:05;94.35;;;61.92;;
33160;SDS011;19522;45.656;11.302;2023-01-01T16:29:31;92.97;;;59.35;;
33160;SDS011;19522;45.656;11.302;2023-01-01T16:31:56;91.05;;;60.25;;
33160;SDS011;19522;45.656;11.302;2023-01-01T16:34:22;83.35;;;56.95;;
33160;SDS011;19522;45.656;11.302;2023-01-01T16:36:47;91.00;;;60.53;;
33160;SDS011;19522;45.656;11.302;2023-01-01T16:39:13;90.38;;;58.72;;
33160;SDS011;19522;45.656;11.302;2023-01-01T16:41:39;86.03;;;56.08;;